Time;durP1;ratioP1;P1;durP2;ratioP2;P2;SDS_P1;SDS_P2;PMS_P1;PMS_P2;Temp;Humidity;BMP_temperature;BMP_pressure;BME280_temperature;BME280_humidity;BME280_pressure;Samples;Min_cycle;Max_cycle;Signal;HPM_P1;HPM_P2
2022/12/28 00:01:43;;;;;;;8.70;1.50;;;;;;;;;;5103234;28;20052;-78
2022/12/28 00:04:12;;;;;;;2.70;1.00;;;;;;;;;;5103499;28;20068;-78
2022/12/28 00:06:38;;;;;;;7.88;1.25;;;;;;;;;;5098780;28;20139;-77
2022/12/28 00:09:05;;;;;;;9.82;1.30;;;;;;;;;;5089350;28;20048;-78
2022/12/28 00:11:31;;;;;;;8.65;1.35;;;;;;;;;;5072172;28;20047;-78
2022/12/28 00:13:59;;;;;;;6.88;1.30;;;;;;;;;;5050974;28;20056;-78
2022/12/28 00:16:26;;;;;;;6.95;1.20;;;;;;;;;;5071684;28;20517;-78
2022/12/28 00:18:53;;;;;;;5.18;1.35;;;;;;;;;;5071362;28;20072;-78
2022/12/28 00:21:20;;;;;;;6.68;1.73;;;;;;;;;;5072700;28;20052;-79
2022/12/28 00:23:50;;;;;;;5.28;1.33;;;;;;;;;;5070915;28;20502;-77
2022/12/28 00:26:18;;;;;;;3.60;1.20;;;;;;;;;;5071820;28;20421;-77
2022/12/28 00:28:44;;;;;;;7.35;1.42;;;;;;;;;;5071305;28;20050;-78
2022/12/28 00:31:11;;;;;;;4.10;1.20;;;;;;;;;;5070970;28;20149;-78
2022/12/28 00:33:38;;;;;;;5.50;1.40;;;;;;;;;;5069217;28;20053;-78
2022/12/28 00:36:05;;;;;;;3.47;1.17;;;;;;;;;;5071857;28;20045;-78
2022/12/28 00:38:33;;;;;;;6.68;1.65;;;;;;;;;;5072116;28;20049;-78
2022/12/28 00:40:59;;;;;;;4.07;1.30;;;;;;;;;;5069357;28;20521;-77
2022/12/28 00:43:26;;;;;;;6.65;1.40;;;;;;;;;;5068049;28;20478;-77
2022/12/28 00:45:52;;;;;;;6.70;1.80;;;;;;;;;;5069819;28;20052;-77
2022/12/28 00:48:19;;;;;;;7.88;1.40;;;;;;;;;;5068008;28;20048;-77
2022/12/28 00:50:45;;;;;;;3.83;0.90;;;;;;;;;;5068853;28;20199;-77
2022/12/28 00:53:12;;;;;;;11.05;1.50;;;;;;;;;;5067799;28;20443;-77
2022/12/28 00:55:39;;;;;;;6.68;1.77;;;;;;;;;;5069529;28;20045;-77
2022/12/28 00:58:05;;;;;;;3.83;1.08;;;;;;;;;;5068208;28;20083;-77
2022/12/28 01:00:32;;;;;;;4.72;1.13;;;;;;;;;;5068508;28;20055;-76
2022/12/28 01:02:59;;;;;;;6.05;1.30;;;;;;;;;;5066876;28;20063;-77
2022/12/28 01:05:25;;;;;;;5.13;1.20;;;;;;;;;;5051169;28;20536;-77
2022/12/28 01:07:51;;;;;;;4.50;1.23;;;;;;;;;;5050212;28;20124;-78
2022/12/28 01:10:18;;;;;;;6.18;1.00;;;;;;;;;;5068107;28;20499;-77
2022/12/28 01:12:44;;;;;;;6.18;1.08;;;;;;;;;;5065985;28;20473;-75
2022/12/28 01:15:11;;;;;;;4.88;1.17;;;;;;;;;;5067867;28;20072;-78
2022/12/28 01:17:38;;;;;;;5.80;1.30;;;;;;;;;;5068212;28;20052;-77
2022/12/28 01:20:05;;;;;;;10.00;1.20;;;;;;;;;;5069424;28;20424;-76
2022/12/28 01:22:32;;;;;;;3.47;0.85;;;;;;;;;;5067801;28;20055;-78
2022/12/28 01:24:58;;;;;;;4.25;1.10;;;;;;;;;;5068967;28;20058;-78
2022/12/28 01:27:25;;;;;;;7.00;1.08;;;;;;;;;;5087440;28;20046;-78
2022/12/28 01:29:51;;;;;;;5.97;1.00;;;;;;;;;;5088207;28;20282;-78
2022/12/28 01:32:17;;;;;;;5.40;1.00;;;;;;;;;;5086942;28;20048;-76
2022/12/28 01:34:44;;;;;;;4.70;1.20;;;;;;;;;;5088186;28;20134;-77
2022/12/28 01:37:10;;;;;;;7.15;1.00;;;;;;;;;;5088538;28;20534;-78
2022/12/28 01:39:37;;;;;;;6.55;0.90;;;;;;;;;;5088741;28;20052;-77
2022/12/28 01:42:14;;;;;;;6.35;1.20;;;;;;;;;;5088603;28;20051;-78
2022/12/28 01:44:41;;;;;;;4.90;1.17;;;;;;;;;;5089182;28;20068;-78
2022/12/28 01:47:12;;;;;;;4.40;1.10;;;;;;;;;;5090252;28;20052;-77
2022/12/28 01:49:53;;;;;;;5.80;0.98;;;;;;;;;;5091823;28;20048;-77
2022/12/28 01:52:20;;;;;;;9.60;0.93;;;;;;;;;;5094036;28;20052;-75
2022/12/28 01:54:49;;;;;;;8.93;1.30;;;;;;;;;;5096750;28;20054;-75
2022/12/28 01:57:17;;;;;;;10.32;1.00;;;;;;;;;;5093197;28;20078;-79
2022/12/28 01:59:47;;;;;;;4.57;0.82;;;;;;;;;;5095753;28;20052;-79
2022/12/28 02:02:13;;;;;;;4.95;1.10;;;;;;;;;;5094586;28;20054;-77
2022/12/28 02:04:40;;;;;;;7.18;1.10;;;;;;;;;;5093518;28;20056;-78
2022/12/28 02:07:07;;;;;;;5.57;0.85;;;;;;;;;;5093839;28;20044;-79
2022/12/28 02:09:41;;;;;;;7.55;1.27;;;;;;;;;;5077106;28;20040;-78
2022/12/28 02:12:09;;;;;;;4.15;0.95;;;;;;;;;;5093581;28;20559;-78
2022/12/28 02:14:36;;;;;;;1.92;0.77;;;;;;;;;;5094877;28;20185;-78
2022/12/28 02:17:02;;;;;;;11.18;1.90;;;;;;;;;;5093733;28;20044;-79
2022/12/28 02:19:35;;;;;;;3.58;1.10;;;;;;;;;;5094268;28;20574;-78
2022/12/28 02:22:01;;;;;;;6.00;1.25;;;;;;;;;;5093794;28;20112;-77
2022/12/28 02:24:28;;;;;;;6.10;0.90;;;;;;;;;;5094395;28;20048;-78
2022/12/28 02:27:04;;;;;;;4.30;0.68;;;;;;;;;;5094702;28;20139;-77
2022/12/28 02:29:49;;;;;;;4.45;0.85;;;;;;;;;;5094596;28;20059;-78
2022/12/28 02:32:15;;;;;;;6.68;1.00;;;;;;;;;;5093432;28;20093;-78
2022/12/28 02:34:42;;;;;;;5.97;0.70;;;;;;;;;;5098007;28;20050;-78
2022/12/28 02:37:12;;;;;;;6.10;1.00;;;;;;;;;;5106706;28;20067;-78
2022/12/28 02:39:51;;;;;;;5.82;0.90;;;;;;;;;;5099126;28;20040;-79
2022/12/28 02:42:19;;;;;;;9.48;1.00;;;;;;;;;;5094835;28;20087;-77
2022/12/28 02:50:16;;;;;;;8.75;0.52;;;;;;;;;;5093210;28;20120;-78
2022/12/28 02:52:54;;;;;;;3.05;0.73;;;;;;;;;;5092493;28;20084;-78
2022/12/28 02:58:38;;;;;;;6.57;0.80;;;;;;;;;;5095780;28;20076;-78
2022/12/28 03:01:07;;;;;;;5.57;0.90;;;;;;;;;;5096373;28;20056;-78
2022/12/28 03:03:55;;;;;;;6.95;0.98;;;;;;;;;;5096512;28;20051;-78
2022/12/28 03:09:46;;;;;;;4.75;1.00;;;;;;;;;;5088718;28;20127;-78
2022/12/28 03:12:22;;;;;;;4.70;0.80;;;;;;;;;;5071806;28;20111;-77
2022/12/28 03:14:55;;;;;;;8.80;0.90;;;;;;;;;;5072337;28;20045;-77
2022/12/28 03:31:17;;;;;;;4.82;0.80;;;;;;;;;;5073544;28;20087;-78
2022/12/28 03:33:45;;;;;;;2.17;0.57;;;;;;;;;;5074409;28;20076;-78
2022/12/28 03:36:19;;;;;;;5.32;0.80;;;;;;;;;;5076210;28;20051;-78
2022/12/28 03:38:54;;;;;;;4.18;0.65;;;;;;;;;;5079005;28;20064;-78
2022/12/28 03:41:29;;;;;;;4.10;1.02;;;;;;;;;;5079419;28;20052;-77
2022/12/28 03:44:00;;;;;;;3.08;0.70;;;;;;;;;;5079138;28;20068;-78
2022/12/28 03:46:28;;;;;;;6.55;0.85;;;;;;;;;;5080958;28;20055;-78
2022/12/28 03:49:14;;;;;;;3.90;0.70;;;;;;;;;;5072476;28;20044;-79
2022/12/28 03:51:41;;;;;;;6.95;0.75;;;;;;;;;;5071975;28;20616;-78
2022/12/28 03:54:08;;;;;;;4.50;0.85;;;;;;;;;;5071860;28;20550;-78
2022/12/28 03:56:44;;;;;;;3.22;0.50;;;;;;;;;;5073307;28;20076;-78
2022/12/28 03:59:10;;;;;;;3.17;0.52;;;;;;;;;;5071999;28;20044;-79
2022/12/28 04:01:36;;;;;;;3.30;0.68;;;;;;;;;;5072223;28;20132;-78
2022/12/28 04:04:03;;;;;;;3.65;0.68;;;;;;;;;;5069991;28;20056;-79
2022/12/28 04:06:29;;;;;;;3.35;0.85;;;;;;;;;;5072570;28;20087;-78
2022/12/28 04:08:56;;;;;;;6.25;0.95;;;;;;;;;;5071836;28;20116;-78
2022/12/28 04:11:22;;;;;;;5.25;0.82;;;;;;;;;;5072331;28;20048;-78
2022/12/28 04:13:49;;;;;;;5.93;0.70;;;;;;;;;;5052314;28;20055;-78
2022/12/28 04:16:15;;;;;;;1.83;0.60;;;;;;;;;;5070648;28;20116;-78
2022/12/28 04:18:42;;;;;;;2.05;0.77;;;;;;;;;;5070795;28;20052;-78
2022/12/28 04:21:09;;;;;;;2.20;0.80;;;;;;;;;;5072611;28;20075;-78
2022/12/28 04:23:35;;;;;;;6.60;1.08;;;;;;;;;;5071286;28;20076;-78
2022/12/28 04:26:04;;;;;;;2.28;0.60;;;;;;;;;;5054382;28;20044;-78
2022/12/28 04:28:31;;;;;;;4.20;0.82;;;;;;;;;;5071771;28;20049;-78
2022/12/28 04:30:58;;;;;;;4.97;1.00;;;;;;;;;;5073352;28;20055;-78
2022/12/28 04:33:25;;;;;;;3.97;0.73;;;;;;;;;;5071863;28;20045;-78
2022/12/28 04:35:51;;;;;;;2.92;0.73;;;;;;;;;;5074468;28;20075;-78
2022/12/28 04:38:18;;;;;;;2.15;0.60;;;;;;;;;;5073097;28;20071;-78
2022/12/28 04:40:44;;;;;;;6.60;0.80;;;;;;;;;;5073893;28;20591;-78
2022/12/28 04:43:11;;;;;;;3.15;0.80;;;;;;;;;;5071882;28;20048;-78
2022/12/28 04:45:37;;;;;;;3.92;0.93;;;;;;;;;;5071262;28;20128;-78
2022/12/28 04:48:04;;;;;;;2.33;0.60;;;;;;;;;;5071413;28;20056;-78
2022/12/28 04:50:30;;;;;;;2.45;0.65;;;;;;;;;;5071652;28;20433;-78
2022/12/28 04:52:57;;;;;;;4.38;0.70;;;;;;;;;;5069275;28;20044;-78
2022/12/28 04:55:23;;;;;;;4.35;0.82;;;;;;;;;;5070724;28;20049;-79
2022/12/28 04:57:59;;;;;;;4.88;0.90;;;;;;;;;;5072361;28;20370;-79
2022/12/28 05:00:25;;;;;;;1.27;0.80;;;;;;;;;;5072273;28;20044;-79
2022/12/28 05:02:51;;;;;;;5.20;0.95;;;;;;;;;;5070612;28;20053;-78
2022/12/28 05:05:18;;;;;;;4.85;1.13;;;;;;;;;;5054854;28;20079;-78
2022/12/28 05:07:44;;;;;;;3.42;0.60;;;;;;;;;;5054703;28;20072;-78
2022/12/28 05:10:11;;;;;;;5.10;0.95;;;;;;;;;;5072469;28;20392;-78
2022/12/28 05:12:37;;;;;;;2.25;0.82;;;;;;;;;;5070161;28;20063;-79
2022/12/28 05:15:04;;;;;;;3.25;0.73;;;;;;;;;;5071953;28;20412;-78
2022/12/28 05:17:30;;;;;;;7.40;1.00;;;;;;;;;;5070311;28;20359;-78
2022/12/28 05:19:56;;;;;;;2.95;1.02;;;;;;;;;;5070991;28;20048;-78
2022/12/28 05:22:23;;;;;;;3.85;0.80;;;;;;;;;;5068350;28;20420;-79
2022/12/28 05:24:49;;;;;;;1.83;0.70;;;;;;;;;;5070308;28;20365;-78
2022/12/28 05:27:16;;;;;;;4.82;0.98;;;;;;;;;;5072536;28;20059;-78
2022/12/28 05:29:42;;;;;;;3.45;0.82;;;;;;;;;;5074774;28;20070;-78
2022/12/28 05:32:08;;;;;;;9.75;1.05;;;;;;;;;;5074439;28;20044;-79
2022/12/28 05:34:35;;;;;;;2.10;0.70;;;;;;;;;;5094832;28;20039;-79
2022/12/28 05:37:01;;;;;;;3.30;0.90;;;;;;;;;;5094738;28;20047;-78
2022/12/28 05:39:27;;;;;;;4.18;1.50;;;;;;;;;;5077684;28;20063;-79
2022/12/28 05:41:58;;;;;;;3.90;0.70;;;;;;;;;;5076650;28;20340;-78
2022/12/28 05:44:25;;;;;;;4.57;1.30;;;;;;;;;;5094271;28;20048;-78
2022/12/28 05:46:52;;;;;;;3.92;0.82;;;;;;;;;;5095013;28;20109;-78
2022/12/28 05:49:18;;;;;;;2.80;0.80;;;;;;;;;;5077232;28;20122;-78
2022/12/28 05:51:47;;;;;;;6.57;0.90;;;;;;;;;;5094458;28;20131;-76
2022/12/28 05:54:13;;;;;;;3.15;0.90;;;;;;;;;;5094061;28;20133;-78
2022/12/28 05:56:40;;;;;;;3.10;0.90;;;;;;;;;;5110187;28;20052;-77
2022/12/28 05:59:06;;;;;;;3.72;0.95;;;;;;;;;;5107909;28;20140;-78
2022/12/28 06:01:33;;;;;;;3.33;0.75;;;;;;;;;;5107617;28;20135;-79
2022/12/28 06:04:04;;;;;;;4.88;0.70;;;;;;;;;;5104930;28;20044;-78
2022/12/28 06:06:32;;;;;;;7.35;1.10;;;;;;;;;;5080533;28;20067;-78
2022/12/28 06:08:59;;;;;;;3.95;0.75;;;;;;;;;;5094940;28;20257;-78
2022/12/28 06:11:26;;;;;;;4.80;1.00;;;;;;;;;;5075474;28;20048;-78
2022/12/28 06:13:53;;;;;;;2.28;0.80;;;;;;;;;;5073533;28;20076;-79
2022/12/28 06:16:21;;;;;;;3.03;1.10;;;;;;;;;;5075102;28;20090;-78
2022/12/28 06:18:47;;;;;;;2.47;0.75;;;;;;;;;;5071097;28;20071;-78
2022/12/28 06:21:22;;;;;;;3.78;0.70;;;;;;;;;;5072654;28;20148;-78
2022/12/28 06:23:49;;;;;;;1.60;0.80;;;;;;;;;;5055719;28;20044;-77
2022/12/28 06:26:16;;;;;;;3.65;1.38;;;;;;;;;;5066371;28;20049;-78
2022/12/28 06:28:43;;;;;;;2.40;0.80;;;;;;;;;;5065424;28;20044;-78
2022/12/28 06:31:10;;;;;;;2.50;0.80;;;;;;;;;;5067663;28;20048;-77
2022/12/28 06:33:37;;;;;;;1.85;0.90;;;;;;;;;;5064954;28;20048;-77
2022/12/28 06:36:04;;;;;;;3.15;0.90;;;;;;;;;;5066765;28;20052;-74
2022/12/28 06:38:31;;;;;;;2.00;0.88;;;;;;;;;;5061688;28;20048;-74
2022/12/28 06:41:02;;;;;;;2.97;0.90;;;;;;;;;;5065429;28;20056;-74
2022/12/28 06:43:39;;;;;;;5.35;1.30;;;;;;;;;;5062127;28;20056;-77
2022/12/28 06:46:06;;;;;;;6.70;0.90;;;;;;;;;;5068045;28;20067;-77
2022/12/28 06:48:33;;;;;;;2.50;0.70;;;;;;;;;;5067210;28;20055;-78
2022/12/28 06:51:00;;;;;;;2.78;0.70;;;;;;;;;;5067064;28;20052;-77
2022/12/28 06:53:28;;;;;;;5.13;1.10;;;;;;;;;;5067302;28;20048;-80
2022/12/28 06:55:56;;;;;;;9.30;0.80;;;;;;;;;;5071761;28;20544;-77
2022/12/28 06:58:22;;;;;;;2.58;0.70;;;;;;;;;;5068843;28;20064;-81
2022/12/28 07:00:49;;;;;;;2.90;0.80;;;;;;;;;;5070544;28;20045;-80
2022/12/28 07:03:15;;;;;;;1.48;0.70;;;;;;;;;;5066652;28;20083;-79
2022/12/28 07:05:42;;;;;;;2.20;0.70;;;;;;;;;;5070422;28;20177;-80
2022/12/28 07:08:08;;;;;;;6.25;0.80;;;;;;;;;;5068737;28;20056;-80
2022/12/28 07:10:49;;;;;;;2.72;0.82;;;;;;;;;;5067119;28;20345;-79
2022/12/28 07:13:15;;;;;;;2.65;0.80;;;;;;;;;;5057641;28;20048;-79
2022/12/28 07:15:42;;;;;;;5.00;1.00;;;;;;;;;;5074785;28;20049;-80
2022/12/28 07:18:08;;;;;;;4.78;1.00;;;;;;;;;;5070414;28;20056;-80
2022/12/28 07:20:35;;;;;;;1.50;0.80;;;;;;;;;;5079560;28;20076;-79
2022/12/28 07:23:05;;;;;;;6.20;0.90;;;;;;;;;;5072381;28;20117;-82
2022/12/28 07:25:32;;;;;;;3.50;0.90;;;;;;;;;;5086547;28;20048;-79
2022/12/28 07:27:58;;;;;;;3.90;1.00;;;;;;;;;;5062869;28;20396;-77
2022/12/28 07:30:25;;;;;;;2.88;0.98;;;;;;;;;;5068063;28;20059;-77
2022/12/28 07:32:51;;;;;;;4.15;0.80;;;;;;;;;;5064677;28;20174;-76
2022/12/28 07:35:17;;;;;;;3.92;0.93;;;;;;;;;;5067739;28;20444;-77
2022/12/28 07:37:45;;;;;;;3.85;1.13;;;;;;;;;;5078133;28;20040;-80
2022/12/28 07:40:11;;;;;;;2.47;0.90;;;;;;;;;;5067050;28;20275;-77
2022/12/28 07:42:38;;;;;;;3.63;1.20;;;;;;;;;;5065972;28;20056;-77
2022/12/28 07:45:07;;;;;;;3.28;1.13;;;;;;;;;;5070114;28;20071;-79
2022/12/28 07:47:34;;;;;;;3.28;0.90;;;;;;;;;;5075628;28;20640;-78
2022/12/28 07:50:01;;;;;;;1.95;0.93;;;;;;;;;;5064108;28;20044;-75
2022/12/28 07:52:28;;;;;;;3.97;1.00;;;;;;;;;;5047042;28;20041;-78
2022/12/28 07:54:54;;;;;;;2.25;0.90;;;;;;;;;;5064315;28;20707;-78
2022/12/28 07:57:20;;;;;;;2.25;0.80;;;;;;;;;;5064214;28;20044;-78
2022/12/28 07:59:47;;;;;;;2.20;1.00;;;;;;;;;;5066491;28;20062;-77
2022/12/28 08:02:13;;;;;;;1.40;0.80;;;;;;;;;;5064669;28;20053;-77
2022/12/28 08:04:39;;;;;;;3.63;1.20;;;;;;;;;;5066751;28;20063;-77
2022/12/28 08:07:06;;;;;;;3.75;1.30;;;;;;;;;;5053240;28;20056;-78
2022/12/28 08:09:32;;;;;;;3.88;1.17;;;;;;;;;;5069942;28;20060;-80
2022/12/28 08:11:59;;;;;;;2.97;1.00;;;;;;;;;;5070674;28;20068;-78
2022/12/28 08:14:25;;;;;;;3.28;1.05;;;;;;;;;;5068523;28;20095;-80
2022/12/28 08:16:52;;;;;;;2.80;1.00;;;;;;;;;;5072540;28;20051;-79
2022/12/28 08:19:18;;;;;;;4.95;1.15;;;;;;;;;;5053212;28;20052;-79
2022/12/28 08:21:44;;;;;;;10.68;1.15;;;;;;;;;;5069189;28;20045;-79
2022/12/28 08:24:16;;;;;;;4.18;1.05;;;;;;;;;;5069322;28;20052;-79
2022/12/28 08:26:43;;;;;;;4.35;1.15;;;;;;;;;;5069784;28;20059;-80
2022/12/28 08:29:11;;;;;;;2.08;1.00;;;;;;;;;;5071334;28;20095;-78
2022/12/28 08:31:38;;;;;;;2.85;1.10;;;;;;;;;;5070309;28;20469;-78
2022/12/28 08:34:07;;;;;;;3.05;1.00;;;;;;;;;;5065217;28;20106;-78
2022/12/28 08:36:34;;;;;;;2.38;0.90;;;;;;;;;;5068075;28;20527;-78
2022/12/28 08:39:00;;;;;;;5.53;0.80;;;;;;;;;;5064582;28;20088;-78
2022/12/28 08:41:28;;;;;;;1.75;0.80;;;;;;;;;;5066411;28;20149;-78
2022/12/28 08:43:55;;;;;;;3.15;1.17;;;;;;;;;;5063826;28;20068;-77
2022/12/28 08:46:22;;;;;;;3.28;0.80;;;;;;;;;;5065834;28;20275;-78
2022/12/28 08:48:50;;;;;;;2.80;0.90;;;;;;;;;;5048047;28;20052;-77
2022/12/28 08:51:18;;;;;;;3.95;1.02;;;;;;;;;;5067710;28;20076;-77
2022/12/28 08:53:45;;;;;;;2.47;0.80;;;;;;;;;;5069563;28;20106;-78
2022/12/28 08:56:20;;;;;;;4.30;1.15;;;;;;;;;;5068199;28;20055;-79
2022/12/28 08:58:47;;;;;;;3.07;1.20;;;;;;;;;;5066044;28;20044;-79
2022/12/28 09:01:27;;;;;;;3.20;0.88;;;;;;;;;;5069527;28;20301;-79
2022/12/28 09:03:55;;;;;;;2.10;0.98;;;;;;;;;;5067358;28;20048;-79
2022/12/28 09:06:22;;;;;;;3.78;0.98;;;;;;;;;;5070709;28;20063;-79
2022/12/28 09:08:49;;;;;;;5.80;1.05;;;;;;;;;;5049877;28;20072;-78
2022/12/28 09:11:30;;;;;;;3.63;0.98;;;;;;;;;;5052239;28;20053;-76
2022/12/28 09:13:57;;;;;;;2.75;0.80;;;;;;;;;;5056788;28;20055;-78
2022/12/28 09:16:25;;;;;;;5.05;1.00;;;;;;;;;;5068870;28;20053;-79
2022/12/28 09:18:53;;;;;;;3.00;0.85;;;;;;;;;;5069442;28;20520;-80
2022/12/28 09:21:20;;;;;;;2.80;1.10;;;;;;;;;;5071202;28;20049;-79
2022/12/28 09:23:47;;;;;;;3.05;1.10;;;;;;;;;;5057884;28;20050;-79
2022/12/28 09:26:18;;;;;;;2.30;1.00;;;;;;;;;;5086049;28;20059;-79
2022/12/28 09:28:45;;;;;;;1.95;0.63;;;;;;;;;;5062937;28;20049;-78
2022/12/28 09:31:20;;;;;;;4.70;0.98;;;;;;;;;;5069738;28;20056;-78
2022/12/28 09:33:59;;;;;;;4.07;1.27;;;;;;;;;;5065453;28;20468;-78
2022/12/28 09:36:46;;;;;;;3.80;0.95;;;;;;;;;;5069076;28;20064;-79
2022/12/28 09:39:15;;;;;;;2.20;0.82;;;;;;;;;;5069250;28;20103;-79
2022/12/28 09:41:48;;;;;;;2.42;1.00;;;;;;;;;;5071405;28;20068;-79
2022/12/28 09:44:14;;;;;;;4.80;1.20;;;;;;;;;;5069525;28;20049;-80
2022/12/28 09:46:58;;;;;;;3.15;1.02;;;;;;;;;;5051879;28;20056;-78
2022/12/28 09:49:48;;;;;;;3.30;1.13;;;;;;;;;;5070850;28;20130;-80
2022/12/28 09:52:34;;;;;;;2.67;1.02;;;;;;;;;;5062711;28;20040;-77
2022/12/28 09:55:06;;;;;;;3.50;0.90;;;;;;;;;;5054480;28;20052;-80
2022/12/28 09:57:35;;;;;;;3.22;0.90;;;;;;;;;;5069604;28;20051;-78
2022/12/28 10:00:02;;;;;;;5.55;1.02;;;;;;;;;;5064286;28;20056;-80
2022/12/28 10:02:31;;;;;;;5.45;1.05;;;;;;;;;;5069072;28;20575;-79
2022/12/28 10:04:58;;;;;;;3.00;0.95;;;;;;;;;;5062824;28;20052;-79
2022/12/28 10:07:24;;;;;;;4.20;1.05;;;;;;;;;;5071587;28;20052;-79
2022/12/28 10:09:51;;;;;;;2.88;0.88;;;;;;;;;;5060946;28;20056;-78
2022/12/28 10:12:23;;;;;;;4.75;1.00;;;;;;;;;;5056968;28;20055;-76
2022/12/28 10:14:50;;;;;;;4.78;1.00;;;;;;;;;;5051278;28;20051;-79
2022/12/28 10:17:19;;;;;;;4.07;0.90;;;;;;;;;;5041499;28;20832;-79
2022/12/28 10:19:46;;;;;;;1.80;1.10;;;;;;;;;;5063649;28;20053;-78
2022/12/28 10:22:15;;;;;;;5.47;1.30;;;;;;;;;;5036266;28;20064;-78
2022/12/28 10:24:42;;;;;;;3.42;0.98;;;;;;;;;;5069878;28;20052;-79
2022/12/28 10:27:15;;;;;;;5.43;1.13;;;;;;;;;;5083431;28;20083;-78
2022/12/28 10:29:42;;;;;;;1.85;0.82;;;;;;;;;;5070063;28;20063;-79
2022/12/28 10:32:11;;;;;;;2.97;1.20;;;;;;;;;;5072300;28;20080;-79
2022/12/28 10:34:51;;;;;;;1.83;0.95;;;;;;;;;;5072288;28;20207;-79
2022/12/28 10:37:18;;;;;;;3.03;0.93;;;;;;;;;;5072287;28;20418;-79
2022/12/28 10:39:53;;;;;;;3.95;1.00;;;;;;;;;;5071296;28;20060;-79
2022/12/28 10:42:23;;;;;;;3.45;1.10;;;;;;;;;;5068488;28;20052;-78
2022/12/28 10:44:50;;;;;;;5.35;1.10;;;;;;;;;;5070527;28;20050;-80
2022/12/28 10:47:30;;;;;;;4.20;0.90;;;;;;;;;;5071030;28;20152;-79
2022/12/28 10:49:56;;;;;;;2.92;0.90;;;;;;;;;;5061827;28;20151;-79
2022/12/28 10:52:54;;;;;;;3.00;1.00;;;;;;;;;;5070575;28;20504;-79
2022/12/28 10:55:28;;;;;;;4.78;0.90;;;;;;;;;;5052068;28;20099;-79
2022/12/28 10:57:54;;;;;;;2.15;1.10;;;;;;;;;;5070452;28;20533;-78
2022/12/28 11:00:40;;;;;;;2.67;1.00;;;;;;;;;;5068619;28;20049;-78
2022/12/28 11:03:16;;;;;;;2.03;0.87;;;;;;;;;;5065721;28;20057;-78
2022/12/28 11:05:43;;;;;;;3.70;0.95;;;;;;;;;;5071032;28;20057;-78
2022/12/28 11:08:12;;;;;;;3.63;1.00;;;;;;;;;;5069165;28;20060;-78
2022/12/28 11:10:39;;;;;;;3.58;1.13;;;;;;;;;;5067977;28;20094;-78
2022/12/28 11:13:16;;;;;;;5.07;1.05;;;;;;;;;;5048416;28;20112;-78
2022/12/28 11:15:47;;;;;;;1.98;0.93;;;;;;;;;;5054213;28;20055;-77
2022/12/28 11:18:15;;;;;;;7.18;1.25;;;;;;;;;;5068520;28;20059;-77
2022/12/28 11:20:43;;;;;;;3.20;0.85;;;;;;;;;;5068069;28;20070;-77
2022/12/28 11:23:15;;;;;;;3.47;1.00;;;;;;;;;;5064114;28;20045;-77
2022/12/28 11:25:42;;;;;;;3.63;1.10;;;;;;;;;;5065397;28;20094;-77
2022/12/28 11:28:15;;;;;;;2.40;1.15;;;;;;;;;;5069484;28;20052;-78
2022/12/28 11:30:42;;;;;;;4.93;1.20;;;;;;;;;;5045563;28;20605;-78
2022/12/28 11:33:22;;;;;;;5.88;1.08;;;;;;;;;;5064925;28;20076;-78
2022/12/28 11:35:48;;;;;;;6.45;1.42;;;;;;;;;;5065555;28;20388;-78
2022/12/28 11:38:35;;;;;;;5.07;1.00;;;;;;;;;;5066257;28;20442;-78
2022/12/28 11:41:01;;;;;;;5.82;1.10;;;;;;;;;;5067341;28;20179;-78
2022/12/28 11:43:28;;;;;;;3.25;1.20;;;;;;;;;;5070077;28;20104;-78
2022/12/28 11:46:04;;;;;;;9.25;1.13;;;;;;;;;;5076059;28;20076;-79
2022/12/28 11:48:36;;;;;;;2.83;0.88;;;;;;;;;;5076796;28;20044;-78
2022/12/28 11:51:18;;;;;;;5.13;1.30;;;;;;;;;;5076934;28;20044;-79
2022/12/28 11:53:44;;;;;;;5.63;1.20;;;;;;;;;;5078130;28;20048;-78
2022/12/28 11:56:15;;;;;;;4.97;1.40;;;;;;;;;;5052446;28;20068;-78
2022/12/28 11:58:41;;;;;;;6.25;1.25;;;;;;;;;;5068587;28;20789;-78
2022/12/28 12:01:09;;;;;;;3.20;1.00;;;;;;;;;;5069511;28;20099;-78
2022/12/28 12:03:54;;;;;;;3.30;1.05;;;;;;;;;;5067895;28;20056;-78
2022/12/28 12:06:40;;;;;;;4.43;1.00;;;;;;;;;;5049081;28;20056;-78
2022/12/28 12:09:29;;;;;;;2.53;1.00;;;;;;;;;;5050106;28;20120;-78
2022/12/28 12:11:57;;;;;;;4.25;1.38;;;;;;;;;;5066437;28;20087;-78
2022/12/28 12:14:24;;;;;;;2.10;1.10;;;;;;;;;;5065412;28;20417;-77
2022/12/28 12:17:02;;;;;;;4.03;1.35;;;;;;;;;;5065814;28;20519;-78
2022/12/28 12:19:30;;;;;;;3.38;1.27;;;;;;;;;;5066046;28;20366;-77
2022/12/28 12:22:00;;;;;;;3.65;1.10;;;;;;;;;;5066474;28;20044;-78
2022/12/28 12:24:41;;;;;;;4.22;1.00;;;;;;;;;;5065916;28;20724;-78
2022/12/28 12:27:14;;;;;;;2.53;1.15;;;;;;;;;;5066664;28;20119;-77
2022/12/28 12:29:43;;;;;;;4.93;1.02;;;;;;;;;;5064940;28;20647;-78
2022/12/28 12:32:24;;;;;;;2.15;1.13;;;;;;;;;;5065962;28;20074;-77
2022/12/28 12:34:53;;;;;;;4.63;1.13;;;;;;;;;;5043684;28;20068;-78
2022/12/28 12:37:24;;;;;;;3.65;1.00;;;;;;;;;;5065461;28;20040;-78
2022/12/28 12:40:03;;;;;;;4.15;1.10;;;;;;;;;;5065836;28;20363;-78
2022/12/28 12:42:38;;;;;;;3.13;1.10;;;;;;;;;;5065243;28;20742;-78
2022/12/28 12:45:11;;;;;;;4.00;1.30;;;;;;;;;;5068209;28;20044;-78
2022/12/28 12:47:38;;;;;;;2.05;0.90;;;;;;;;;;5068689;28;20048;-79
2022/12/28 12:50:13;;;;;;;1.05;0.70;;;;;;;;;;5043658;28;20049;-76
2022/12/28 12:52:58;;;;;;;3.25;1.20;;;;;;;;;;5065872;28;20493;-78
2022/12/28 12:55:25;;;;;;;3.33;1.05;;;;;;;;;;5068375;28;20529;-78
2022/12/28 12:57:56;;;;;;;2.45;1.10;;;;;;;;;;5068802;28;20052;-77
2022/12/28 13:00:27;;;;;;;5.35;1.20;;;;;;;;;;5069993;28;20524;-77
2022/12/28 13:02:59;;;;;;;2.75;0.98;;;;;;;;;;5067420;28;20048;-77
2022/12/28 13:05:27;;;;;;;5.00;1.10;;;;;;;;;;5069699;28;20057;-79
2022/12/28 13:07:55;;;;;;;7.43;1.30;;;;;;;;;;5075734;28;20217;-78
2022/12/28 13:10:27;;;;;;;5.07;1.10;;;;;;;;;;5079563;28;20058;-78
2022/12/28 13:12:55;;;;;;;4.65;1.15;;;;;;;;;;5069582;28;20068;-78
2022/12/28 13:15:21;;;;;;;4.75;1.05;;;;;;;;;;5056801;28;20100;-79
2022/12/28 13:18:15;;;;;;;3.95;1.10;;;;;;;;;;5075029;28;20151;-79
2022/12/28 13:21:03;;;;;;;5.25;1.10;;;;;;;;;;5073998;28;20036;-77
2022/12/28 13:23:42;;;;;;;3.67;0.90;;;;;;;;;;5072711;28;20108;-78
2022/12/28 13:26:09;;;;;;;3.35;0.98;;;;;;;;;;5058478;28;20048;-78
2022/12/28 13:28:36;;;;;;;2.65;1.00;;;;;;;;;;5071545;28;20056;-78
2022/12/28 13:31:02;;;;;;;4.28;1.08;;;;;;;;;;5078107;28;20110;-78
2022/12/28 13:33:29;;;;;;;3.58;1.20;;;;;;;;;;5072718;28;20041;-76
2022/12/28 13:36:11;;;;;;;2.70;0.85;;;;;;;;;;5071124;28;20112;-77
2022/12/28 13:38:37;;;;;;;2.53;1.10;;;;;;;;;;5075008;28;20068;-79
2022/12/28 13:41:03;;;;;;;2.78;1.00;;;;;;;;;;5064872;28;20061;-78
2022/12/28 13:43:36;;;;;;;4.15;1.20;;;;;;;;;;5066497;28;20079;-78
2022/12/28 13:46:06;;;;;;;4.20;1.20;;;;;;;;;;5070667;28;20056;-78
2022/12/28 13:48:39;;;;;;;4.85;1.10;;;;;;;;;;5075150;28;20435;-78
2022/12/28 13:51:10;;;;;;;2.03;0.90;;;;;;;;;;5081625;28;20102;-79
2022/12/28 13:53:37;;;;;;;4.22;1.00;;;;;;;;;;5080868;28;20067;-80
2022/12/28 13:56:05;;;;;;;4.35;0.95;;;;;;;;;;5053229;28;20233;-80
2022/12/28 13:58:31;;;;;;;2.78;0.90;;;;;;;;;;5084394;28;20063;-79
2022/12/28 14:01:06;;;;;;;3.80;1.20;;;;;;;;;;5067013;28;20139;-79
2022/12/28 14:03:37;;;;;;;4.70;1.20;;;;;;;;;;5092676;28;20052;-78
2022/12/28 14:06:09;;;;;;;3.20;1.00;;;;;;;;;;5093868;28;20048;-78
2022/12/28 14:08:36;;;;;;;1.70;0.90;;;;;;;;;;5094763;28;20056;-78
2022/12/28 14:11:04;;;;;;;3.92;1.23;;;;;;;;;;5100310;28;20040;-78
2022/12/28 14:13:30;;;;;;;3.53;0.93;;;;;;;;;;5070141;28;20639;-77
2022/12/28 14:15:57;;;;;;;5.25;1.02;;;;;;;;;;5076975;28;20051;-78
2022/12/28 14:18:28;;;;;;;4.68;1.60;;;;;;;;;;5062339;28;20112;-78
2022/12/28 14:20:56;;;;;;;4.45;1.23;;;;;;;;;;5081061;28;20037;-79
2022/12/28 14:23:36;;;;;;;4.35;1.13;;;;;;;;;;5077451;28;20101;-79
2022/12/28 14:26:07;;;;;;;1.70;0.90;;;;;;;;;;5079589;28;20064;-79
2022/12/28 14:28:33;;;;;;;1.38;0.73;;;;;;;;;;5083414;28;20513;-79
2022/12/28 14:31:00;;;;;;;3.40;1.00;;;;;;;;;;5081508;28;20044;-77
2022/12/28 14:33:31;;;;;;;3.38;1.05;;;;;;;;;;5080920;28;20106;-77
2022/12/28 14:36:01;;;;;;;5.65;1.10;;;;;;;;;;5075815;28;20626;-75
2022/12/28 14:38:33;;;;;;;4.22;0.95;;;;;;;;;;5086224;28;20045;-79
2022/12/28 14:41:00;;;;;;;5.30;1.08;;;;;;;;;;5082062;28;20091;-77
2022/12/28 14:43:29;;;;;;;2.88;1.08;;;;;;;;;;5071942;28;20067;-78
2022/12/28 14:45:57;;;;;;;2.38;1.13;;;;;;;;;;5082240;28;20052;-78
2022/12/28 14:48:44;;;;;;;2.20;1.00;;;;;;;;;;5079027;28;20055;-79
2022/12/28 14:51:13;;;;;;;5.45;1.13;;;;;;;;;;5058809;28;20111;-79
2022/12/28 14:53:43;;;;;;;4.82;1.25;;;;;;;;;;5077690;28;20058;-78
2022/12/28 14:56:15;;;;;;;4.85;1.10;;;;;;;;;;5078172;28;20094;-78
2022/12/28 14:58:43;;;;;;;4.82;1.27;;;;;;;;;;5076865;28;20071;-78
2022/12/28 15:01:17;;;;;;;6.78;1.27;;;;;;;;;;5077751;28;20080;-78
2022/12/28 15:03:48;;;;;;;3.53;1.13;;;;;;;;;;5075598;28;20107;-78
2022/12/28 15:06:15;;;;;;;3.10;1.00;;;;;;;;;;5066656;28;20049;-78
2022/12/28 15:08:45;;;;;;;5.22;1.30;;;;;;;;;;5072664;28;20071;-78
2022/12/28 15:11:13;;;;;;;7.50;1.10;;;;;;;;;;5059416;28;20131;-78
2022/12/28 15:13:39;;;;;;;2.60;1.15;;;;;;;;;;5065553;28;20577;-80
2022/12/28 15:16:06;;;;;;;4.15;1.00;;;;;;;;;;5069501;28;20095;-78
2022/12/28 15:18:32;;;;;;;2.42;1.00;;;;;;;;;;5068556;28;20049;-80
2022/12/28 15:21:03;;;;;;;7.68;1.58;;;;;;;;;;5058617;28;20071;-79
2022/12/28 15:23:29;;;;;;;6.32;1.13;;;;;;;;;;5071696;28;20322;-78